sensor_id;sensor_type;location;lat;lon;timestamp;temperature;humidity
8422;DHT22;4248;48.196;10.924;2022-08-04T00:00:05;18.40;40.00
8422;DHT22;4248;48.196;10.924;2022-08-04T00:05:04;18.40;39.40
8422;DHT22;4248;48.196;10.924;2022-08-04T00:10:13;18.20;41.20
8422;DHT22;4248;48.196;10.924;2022-08-04T00:12:42;18.10;41.00
8422;DHT22;4248;48.196;10.924;2022-08-04T00:15:11;18.10;40.10
8422;DHT22;4248;48.196;10.924;2022-08-04T00:17:44;18.10;41.40
8422;DHT22;4248;48.196;10.924;2022-08-04T00:20:12;18.00;41.50
8422;DHT22;4248;48.196;10.924;2022-08-04T00:22:44;18.00;42.00
8422;DHT22;4248;48.196;10.924;2022-08-04T00:25:10;17.90;41.20
8422;DHT22;4248;48.196;10.924;2022-08-04T00:27:35;17.80;42.50
8422;DHT22;4248;48.196;10.924;2022-08-04T00:30:02;17.80;42.70
8422;DHT22;4248;48.196;10.924;2022-08-04T00:32:28;17.80;42.90
8422;DHT22;4248;48.196;10.924;2022-08-04T00:34:56;17.80;42.20
8422;DHT22;4248;48.196;10.924;2022-08-04T00:37:23;17.80;43.00
8422;DHT22;4248;48.196;10.924;2022-08-04T00:39:51;17.80;42.80
8422;DHT22;4248;48.196;10.924;2022-08-04T00:42:35;17.90;42.80
8422;DHT22;4248;48.196;10.924;2022-08-04T00:53:39;17.80;42.90
8422;DHT22;4248;48.196;10.924;2022-08-04T01:02:19;17.70;43.20
8422;DHT22;4248;48.196;10.924;2022-08-04T01:05:14;17.80;42.20
8422;DHT22;4248;48.196;10.924;2022-08-04T01:07:48;17.70;43.10
8422;DHT22;4248;48.196;10.924;2022-08-04T01:16:06;17.70;43.30
8422;DHT22;4248;48.196;10.924;2022-08-04T01:21:28;17.70;44.00
8422;DHT22;4248;48.196;10.924;2022-08-04T01:26:54;17.60;44.30
8422;DHT22;4248;48.196;10.924;2022-08-04T01:29:23;17.50;44.50
8422;DHT22;4248;48.196;10.924;2022-08-04T01:34:29;17.50;44.90
8422;DHT22;4248;48.196;10.924;2022-08-04T01:37:05;17.50;45.40
8422;DHT22;4248;48.196;10.924;2022-08-04T01:39:34;17.40;45.20
8422;DHT22;4248;48.196;10.924;2022-08-04T01:42:09;17.40;45.20
8422;DHT22;4248;48.196;10.924;2022-08-04T01:44:36;17.30;45.20
8422;DHT22;4248;48.196;10.924;2022-08-04T01:47:03;17.20;45.10
8422;DHT22;4248;48.196;10.924;2022-08-04T01:49:30;17.10;45.80
8422;DHT22;4248;48.196;10.924;2022-08-04T01:51:56;17.10;46.20
8422;DHT22;4248;48.196;10.924;2022-08-04T01:54:22;17.00;45.80
8422;DHT22;4248;48.196;10.924;2022-08-04T01:56:49;17.00;46.60
8422;DHT22;4248;48.196;10.924;2022-08-04T01:59:18;17.00;46.60
8422;DHT22;4248;48.196;10.924;2022-08-04T02:01:44;17.00;46.70
8422;DHT22;4248;48.196;10.924;2022-08-04T02:04:18;16.90;46.90
8422;DHT22;4248;48.196;10.924;2022-08-04T02:10:16;16.70;48.00
8422;DHT22;4248;48.196;10.924;2022-08-04T02:12:58;16.70;47.50
8422;DHT22;4248;48.196;10.924;2022-08-04T02:15:43;16.80;47.60
8422;DHT22;4248;48.196;10.924;2022-08-04T02:20:44;16.90;47.90
8422;DHT22;4248;48.196;10.924;2022-08-04T02:23:18;16.90;47.40
8422;DHT22;4248;48.196;10.924;2022-08-04T02:25:50;17.00;47.30
8422;DHT22;4248;48.196;10.924;2022-08-04T02:28:29;17.00;47.30
8422;DHT22;4248;48.196;10.924;2022-08-04T02:31:15;17.00;47.30
8422;DHT22;4248;48.196;10.924;2022-08-04T02:33:55;16.90;47.70
8422;DHT22;4248;48.196;10.924;2022-08-04T02:36:37;16.90;47.80
8422;DHT22;4248;48.196;10.924;2022-08-04T02:39:06;16.90;47.80
8422;DHT22;4248;48.196;10.924;2022-08-04T02:41:32;16.90;48.90
8422;DHT22;4248;48.196;10.924;2022-08-04T02:44:03;16.90;47.80
8422;DHT22;4248;48.196;10.924;2022-08-04T02:46:31;16.80;47.90
8422;DHT22;4248;48.196;10.924;2022-08-04T02:49:01;16.80;48.00
8422;DHT22;4248;48.196;10.924;2022-08-04T02:51:29;16.80;48.20
8422;DHT22;4248;48.196;10.924;2022-08-04T02:53:57;16.80;48.20
8422;DHT22;4248;48.196;10.924;2022-08-04T02:56:27;16.80;48.10
8422;DHT22;4248;48.196;10.924;2022-08-04T02:58:58;16.80;48.20
8422;DHT22;4248;48.196;10.924;2022-08-04T03:01:24;16.70;48.40
8422;DHT22;4248;48.196;10.924;2022-08-04T03:12:24;16.60;49.00
8422;DHT22;4248;48.196;10.924;2022-08-04T03:15:00;16.70;49.00
8422;DHT22;4248;48.196;10.924;2022-08-04T03:36:05;16.60;49.70
8422;DHT22;4248;48.196;10.924;2022-08-04T03:46:39;16.40;50.00
8422;DHT22;4248;48.196;10.924;2022-08-04T03:51:51;16.40;50.30
8422;DHT22;4248;48.196;10.924;2022-08-04T04:00:17;16.20;50.80
8422;DHT22;4248;48.196;10.924;2022-08-04T04:05:33;16.20;51.00
8422;DHT22;4248;48.196;10.924;2022-08-04T04:11:11;16.10;51.30
8422;DHT22;4248;48.196;10.924;2022-08-04T04:14:11;16.10;51.30
8422;DHT22;4248;48.196;10.924;2022-08-04T04:17:04;16.20;51.20
8422;DHT22;4248;48.196;10.924;2022-08-04T04:19:53;16.20;50.70
8422;DHT22;4248;48.196;10.924;2022-08-04T04:22:35;16.30;50.80
8422;DHT22;4248;48.196;10.924;2022-08-04T04:34:12;16.70;49.40
8422;DHT22;4248;48.196;10.924;2022-08-04T04:39:31;16.90;49.10
8422;DHT22;4248;48.196;10.924;2022-08-04T04:46:14;17.00;48.50
8422;DHT22;4248;48.196;10.924;2022-08-04T04:51:40;17.00;49.60
8422;DHT22;4248;48.196;10.924;2022-08-04T04:54:27;17.00;49.70
8422;DHT22;4248;48.196;10.924;2022-08-04T04:59:38;17.20;49.40
8422;DHT22;4248;48.196;10.924;2022-08-04T05:11:26;22.20;40.80
8422;DHT22;4248;48.196;10.924;2022-08-04T05:13:58;23.50;37.30
8422;DHT22;4248;48.196;10.924;2022-08-04T05:16:34;24.60;35.70
8422;DHT22;4248;48.196;10.924;2022-08-04T05:24:36;26.30;30.30
8422;DHT22;4248;48.196;10.924;2022-08-04T05:27:07;27.10;28.80
8422;DHT22;4248;48.196;10.924;2022-08-04T05:29:37;27.80;27.20
8422;DHT22;4248;48.196;10.924;2022-08-04T05:32:10;28.50;24.80
8422;DHT22;4248;48.196;10.924;2022-08-04T05:34:48;29.30;22.60
8422;DHT22;4248;48.196;10.924;2022-08-04T05:37:18;30.20;20.00
8422;DHT22;4248;48.196;10.924;2022-08-04T05:39:54;30.70;18.60
8422;DHT22;4248;48.196;10.924;2022-08-04T05:42:21;31.10;17.20
8422;DHT22;4248;48.196;10.924;2022-08-04T05:44:47;31.30;16.30
8422;DHT22;4248;48.196;10.924;2022-08-04T05:47:14;31.40;15.40
8422;DHT22;4248;48.196;10.924;2022-08-04T05:49:41;31.60;14.90
8422;DHT22;4248;48.196;10.924;2022-08-04T05:52:09;31.90;14.20
8422;DHT22;4248;48.196;10.924;2022-08-04T05:54:36;32.10;13.30
8422;DHT22;4248;48.196;10.924;2022-08-04T05:57:04;32.30;12.90
8422;DHT22;4248;48.196;10.924;2022-08-04T05:59:31;32.60;12.60
8422;DHT22;4248;48.196;10.924;2022-08-04T06:01:59;32.90;12.10
8422;DHT22;4248;48.196;10.924;2022-08-04T06:04:31;33.00;11.70
8422;DHT22;4248;48.196;10.924;2022-08-04T06:06:57;33.10;11.20
8422;DHT22;4248;48.196;10.924;2022-08-04T06:09:22;33.20;10.90
8422;DHT22;4248;48.196;10.924;2022-08-04T06:11:49;33.40;10.30
8422;DHT22;4248;48.196;10.924;2022-08-04T06:14:17;33.40;9.40
8422;DHT22;4248;48.196;10.924;2022-08-04T06:16:46;33.50;9.20
8422;DHT22;4248;48.196;10.924;2022-08-04T06:19:14;33.60;8.90
8422;DHT22;4248;48.196;10.924;2022-08-04T06:21:44;33.60;8.10
8422;DHT22;4248;48.196;10.924;2022-08-04T06:24:15;34.10;7.50
8422;DHT22;4248;48.196;10.924;2022-08-04T06:26:42;34.30;7.80
8422;DHT22;4248;48.196;10.924;2022-08-04T06:29:11;34.20;8.40
8422;DHT22;4248;48.196;10.924;2022-08-04T06:31:45;32.50;11.00
8422;DHT22;4248;48.196;10.924;2022-08-04T06:34:22;31.20;14.20
8422;DHT22;4248;48.196;10.924;2022-08-04T06:36:48;30.30;16.00
8422;DHT22;4248;48.196;10.924;2022-08-04T06:39:14;29.80;16.50
8422;DHT22;4248;48.196;10.924;2022-08-04T06:41:40;30.70;13.60
8422;DHT22;4248;48.196;10.924;2022-08-04T06:44:08;32.10;8.70
8422;DHT22;4248;48.196;10.924;2022-08-04T06:46:36;32.60;8.50
8422;DHT22;4248;48.196;10.924;2022-08-04T06:49:03;33.10;7.80
8422;DHT22;4248;48.196;10.924;2022-08-04T06:51:30;33.60;6.40
8422;DHT22;4248;48.196;10.924;2022-08-04T06:53:57;34.20;4.50
8422;DHT22;4248;48.196;10.924;2022-08-04T06:56:24;34.40;5.30
8422;DHT22;4248;48.196;10.924;2022-08-04T06:58:52;34.80;4.40
8422;DHT22;4248;48.196;10.924;2022-08-04T07:01:20;35.10;3.60
8422;DHT22;4248;48.196;10.924;2022-08-04T07:03:46;34.40;3.50
8422;DHT22;4248;48.196;10.924;2022-08-04T07:06:13;34.00;5.10
8422;DHT22;4248;48.196;10.924;2022-08-04T07:08:39;32.80;7.70
8422;DHT22;4248;48.196;10.924;2022-08-04T07:11:04;31.60;10.60
8422;DHT22;4248;48.196;10.924;2022-08-04T07:13:31;30.30;12.20
8422;DHT22;4248;48.196;10.924;2022-08-04T07:15:58;30.10;13.50
8422;DHT22;4248;48.196;10.924;2022-08-04T07:18:24;29.60;14.20
8422;DHT22;4248;48.196;10.924;2022-08-04T07:20:50;29.10;14.70
8422;DHT22;4248;48.196;10.924;2022-08-04T07:23:22;28.80;14.50
8422;DHT22;4248;48.196;10.924;2022-08-04T07:25:53;28.80;15.70
8422;DHT22;4248;48.196;10.924;2022-08-04T07:28:20;28.70;16.00
8422;DHT22;4248;48.196;10.924;2022-08-04T07:30:47;28.60;16.00
8422;DHT22;4248;48.196;10.924;2022-08-04T07:33:15;28.50;16.40
8422;DHT22;4248;48.196;10.924;2022-08-04T07:35:42;28.60;16.20
8422;DHT22;4248;48.196;10.924;2022-08-04T07:38:07;28.70;16.30
8422;DHT22;4248;48.196;10.924;2022-08-04T07:40:36;28.70;16.40
8422;DHT22;4248;48.196;10.924;2022-08-04T07:43:02;28.70;16.00
8422;DHT22;4248;48.196;10.924;2022-08-04T07:45:27;28.60;16.80
8422;DHT22;4248;48.196;10.924;2022-08-04T07:47:53;28.40;16.70
8422;DHT22;4248;48.196;10.924;2022-08-04T07:50:18;28.40;16.80
8422;DHT22;4248;48.196;10.924;2022-08-04T07:52:46;28.50;16.70
8422;DHT22;4248;48.196;10.924;2022-08-04T07:55:12;28.60;15.90
8422;DHT22;4248;48.196;10.924;2022-08-04T07:57:38;28.80;17.00
8422;DHT22;4248;48.196;10.924;2022-08-04T08:00:05;29.00;17.00
8422;DHT22;4248;48.196;10.924;2022-08-04T08:02:32;29.00;16.80
8422;DHT22;4248;48.196;10.924;2022-08-04T08:04:59;29.30;15.60
8422;DHT22;4248;48.196;10.924;2022-08-04T08:07:25;29.40;16.40
8422;DHT22;4248;48.196;10.924;2022-08-04T08:09:51;29.50;16.20
8422;DHT22;4248;48.196;10.924;2022-08-04T08:12:17;29.60;16.00
8422;DHT22;4248;48.196;10.924;2022-08-04T08:14:43;29.70;14.80
8422;DHT22;4248;48.196;10.924;2022-08-04T08:17:09;29.70;15.50
8422;DHT22;4248;48.196;10.924;2022-08-04T08:19:35;29.70;15.40
8422;DHT22;4248;48.196;10.924;2022-08-04T08:22:01;29.80;15.70
8422;DHT22;4248;48.196;10.924;2022-08-04T08:24:29;29.80;14.90
8422;DHT22;4248;48.196;10.924;2022-08-04T08:26:55;29.90;15.70
8422;DHT22;4248;48.196;10.924;2022-08-04T08:29:22;30.00;15.20
8422;DHT22;4248;48.196;10.924;2022-08-04T08:31:48;30.10;15.10
8422;DHT22;4248;48.196;10.924;2022-08-04T08:34:14;30.10;13.80
8422;DHT22;4248;48.196;10.924;2022-08-04T08:36:50;30.00;14.50
8422;DHT22;4248;48.196;10.924;2022-08-04T08:39:22;30.00;14.60
8422;DHT22;4248;48.196;10.924;2022-08-04T08:56:53;30.50;12.90
8422;DHT22;4248;48.196;10.924;2022-08-04T09:04:58;30.60;11.20
8422;DHT22;4248;48.196;10.924;2022-08-04T09:07:34;30.60;11.80
8422;DHT22;4248;48.196;10.924;2022-08-04T09:10:18;30.80;11.80
8422;DHT22;4248;48.196;10.924;2022-08-04T09:15:36;31.10;10.90
8422;DHT22;4248;48.196;10.924;2022-08-04T09:18:12;31.20;11.30
8422;DHT22;4248;48.196;10.924;2022-08-04T09:26:20;31.50;10.60
8422;DHT22;4248;48.196;10.924;2022-08-04T09:28:54;31.60;10.10
8422;DHT22;4248;48.196;10.924;2022-08-04T09:31:30;31.60;10.20
8422;DHT22;4248;48.196;10.924;2022-08-04T09:34:33;31.40;9.80
8422;DHT22;4248;48.196;10.924;2022-08-04T09:39:55;31.60;10.30
8422;DHT22;4248;48.196;10.924;2022-08-04T09:47:53;31.50;9.50
8422;DHT22;4248;48.196;10.924;2022-08-04T09:53:02;31.50;7.90
8422;DHT22;4248;48.196;10.924;2022-08-04T10:01:08;31.60;7.90
8422;DHT22;4248;48.196;10.924;2022-08-04T10:03:37;31.50;7.30
8422;DHT22;4248;48.196;10.924;2022-08-04T10:09:00;31.50;7.90
8422;DHT22;4248;48.196;10.924;2022-08-04T10:19:41;31.80;7.10
8422;DHT22;4248;48.196;10.924;2022-08-04T10:22:14;31.90;7.10
8422;DHT22;4248;48.196;10.924;2022-08-04T10:24:51;31.90;6.20
8422;DHT22;4248;48.196;10.924;2022-08-04T10:27:27;32.10;6.40
8422;DHT22;4248;48.196;10.924;2022-08-04T10:30:00;32.30;5.60
8422;DHT22;4248;48.196;10.924;2022-08-04T10:32:34;32.30;5.10
8422;DHT22;4248;48.196;10.924;2022-08-04T10:35:07;32.30;4.40
8422;DHT22;4248;48.196;10.924;2022-08-04T10:46:13;32.30;5.70
8422;DHT22;4248;48.196;10.924;2022-08-04T10:49:03;32.40;5.00
8422;DHT22;4248;48.196;10.924;2022-08-04T10:51:51;32.30;4.80
8422;DHT22;4248;48.196;10.924;2022-08-04T11:00:00;32.40;4.60
8422;DHT22;4248;48.196;10.924;2022-08-04T11:05:11;32.50;3.10
8422;DHT22;4248;48.196;10.924;2022-08-04T11:07:40;32.50;3.80
8422;DHT22;4248;48.196;10.924;2022-08-04T11:10:08;32.50;3.80
8422;DHT22;4248;48.196;10.924;2022-08-04T11:12:34;32.60;3.90
8422;DHT22;4248;48.196;10.924;2022-08-04T11:15:09;32.70;2.70
8422;DHT22;4248;48.196;10.924;2022-08-04T11:17:56;32.80;3.50
8422;DHT22;4248;48.196;10.924;2022-08-04T11:20:37;32.80;3.80
8422;DHT22;4248;48.196;10.924;2022-08-04T11:23:12;32.90;2.80
8422;DHT22;4248;48.196;10.924;2022-08-04T11:26:20;32.90;3.50
8422;DHT22;4248;48.196;10.924;2022-08-04T11:31:57;32.80;4.80
8422;DHT22;4248;48.196;10.924;2022-08-04T11:34:25;32.80;4.00
8422;DHT22;4248;48.196;10.924;2022-08-04T11:39:41;32.60;4.40
8422;DHT22;4248;48.196;10.924;2022-08-04T11:45:04;32.60;3.20
8422;DHT22;4248;48.196;10.924;2022-08-04T11:50:43;32.90;3.60
8422;DHT22;4248;48.196;10.924;2022-08-04T11:53:13;32.70;3.00
8422;DHT22;4248;48.196;10.924;2022-08-04T11:55:43;32.70;3.80
8422;DHT22;4248;48.196;10.924;2022-08-04T11:58:10;32.70;3.30
8422;DHT22;4248;48.196;10.924;2022-08-04T12:00:39;32.80;3.20
8422;DHT22;4248;48.196;10.924;2022-08-04T12:03:23;32.90;2.00
8422;DHT22;4248;48.196;10.924;2022-08-04T12:11:51;33.30;2.60
8422;DHT22;4248;48.196;10.924;2022-08-04T12:14:30;33.40;1.90
8422;DHT22;4248;48.196;10.924;2022-08-04T12:17:02;33.30;2.00
8422;DHT22;4248;48.196;10.924;2022-08-04T12:22:08;33.10;1.60
8422;DHT22;4248;48.196;10.924;2022-08-04T12:27:16;33.10;2.10
8422;DHT22;4248;48.196;10.924;2022-08-04T12:29:43;33.20;1.80
8422;DHT22;4248;48.196;10.924;2022-08-04T12:32:36;33.20;2.10
8422;DHT22;4248;48.196;10.924;2022-08-04T12:35:12;33.20;1.00
8422;DHT22;4248;48.196;10.924;2022-08-04T12:37:50;33.10;1.90
8422;DHT22;4248;48.196;10.924;2022-08-04T12:40:33;33.10;1.20
8422;DHT22;4248;48.196;10.924;2022-08-04T12:43:10;33.10;1.00
8422;DHT22;4248;48.196;10.924;2022-08-04T12:45:43;33.10;1.00
8422;DHT22;4248;48.196;10.924;2022-08-04T12:48:11;33.20;1.30
8422;DHT22;4248;48.196;10.924;2022-08-04T12:50:38;33.30;1.00
8422;DHT22;4248;48.196;10.924;2022-08-04T12:53:11;33.40;1.00
8422;DHT22;4248;48.196;10.924;2022-08-04T12:55:38;33.40;1.30
8422;DHT22;4248;48.196;10.924;2022-08-04T12:58:16;33.40;1.50
8422;DHT22;4248;48.196;10.924;2022-08-04T13:00:45;33.40;1.40
8422;DHT22;4248;48.196;10.924;2022-08-04T13:03:15;33.50;1.00
8422;DHT22;4248;48.196;10.924;2022-08-04T13:05:41;33.50;1.30
8422;DHT22;4248;48.196;10.924;2022-08-04T13:08:09;33.40;1.00
8422;DHT22;4248;48.196;10.924;2022-08-04T13:10:45;33.50;1.00
8422;DHT22;4248;48.196;10.924;2022-08-04T13:13:20;33.60;1.00
8422;DHT22;4248;48.196;10.924;2022-08-04T13:16:00;33.60;1.20
8422;DHT22;4248;48.196;10.924;2022-08-04T13:18:28;33.80;1.20
8422;DHT22;4248;48.196;10.924;2022-08-04T13:20:54;33.90;1.00
8422;DHT22;4248;48.196;10.924;2022-08-04T13:23:21;33.80;1.00
8422;DHT22;4248;48.196;10.924;2022-08-04T13:25:52;33.80;1.00
8422;DHT22;4248;48.196;10.924;2022-08-04T13:28:20;33.70;1.00
8422;DHT22;4248;48.196;10.924;2022-08-04T13:30:52;33.60;1.00
8422;DHT22;4248;48.196;10.924;2022-08-04T13:33:18;33.50;1.00
8422;DHT22;4248;48.196;10.924;2022-08-04T13:35:46;33.50;1.50
8422;DHT22;4248;48.196;10.924;2022-08-04T13:38:13;33.60;1.00
8422;DHT22;4248;48.196;10.924;2022-08-04T13:40:41;33.70;1.00
8422;DHT22;4248;48.196;10.924;2022-08-04T13:43:09;33.90;1.00
8422;DHT22;4248;48.196;10.924;2022-08-04T13:45:40;34.00;1.00
8422;DHT22;4248;48.196;10.924;2022-08-04T13:48:06;34.10;1.30
8422;DHT22;4248;48.196;10.924;2022-08-04T13:50:33;34.10;1.30
8422;DHT22;4248;48.196;10.924;2022-08-04T13:53:01;34.20;1.00
8422;DHT22;4248;48.196;10.924;2022-08-04T13:55:33;34.20;1.50
8422;DHT22;4248;48.196;10.924;2022-08-04T13:58:13;34.10;1.20
8422;DHT22;4248;48.196;10.924;2022-08-04T14:00:48;34.10;1.30
8422;DHT22;4248;48.196;10.924;2022-08-04T14:03:39;34.10;1.00
8422;DHT22;4248;48.196;10.924;2022-08-04T14:06:20;34.20;1.00
8422;DHT22;4248;48.196;10.924;2022-08-04T14:11:32;34.00;1.00
8422;DHT22;4248;48.196;10.924;2022-08-04T14:13:58;34.10;1.00
8422;DHT22;4248;48.196;10.924;2022-08-04T14:16:24;34.20;1.30
8422;DHT22;4248;48.196;10.924;2022-08-04T14:19:00;34.10;1.00
8422;DHT22;4248;48.196;10.924;2022-08-04T14:21:26;34.00;1.00
8422;DHT22;4248;48.196;10.924;2022-08-04T14:23:54;34.00;1.00
8422;DHT22;4248;48.196;10.924;2022-08-04T14:26:39;33.90;1.00
8422;DHT22;4248;48.196;10.924;2022-08-04T14:29:13;34.00;1.00
8422;DHT22;4248;48.196;10.924;2022-08-04T14:31:39;33.90;1.00
8422;DHT22;4248;48.196;10.924;2022-08-04T14:34:05;33.80;1.00
8422;DHT22;4248;48.196;10.924;2022-08-04T14:36:43;33.80;1.00
8422;DHT22;4248;48.196;10.924;2022-08-04T14:39:09;33.90;1.00
8422;DHT22;4248;48.196;10.924;2022-08-04T14:41:45;33.90;1.00
8422;DHT22;4248;48.196;10.924;2022-08-04T14:44:11;33.90;1.00
8422;DHT22;4248;48.196;10.924;2022-08-04T14:46:49;33.90;1.00
8422;DHT22;4248;48.196;10.924;2022-08-04T14:49:15;33.90;1.00
8422;DHT22;4248;48.196;10.924;2022-08-04T14:51:43;33.90;1.00
8422;DHT22;4248;48.196;10.924;2022-08-04T14:54:11;33.80;1.00
8422;DHT22;4248;48.196;10.924;2022-08-04T14:56:41;33.80;1.00
8422;DHT22;4248;48.196;10.924;2022-08-04T14:59:15;33.80;1.00
8422;DHT22;4248;48.196;10.924;2022-08-04T15:01:41;33.80;1.00
8422;DHT22;4248;48.196;10.924;2022-08-04T15:04:07;33.90;1.00
8422;DHT22;4248;48.196;10.924;2022-08-04T15:06:34;33.90;1.00
8422;DHT22;4248;48.196;10.924;2022-08-04T15:09:09;33.90;1.00
8422;DHT22;4248;48.196;10.924;2022-08-04T15:11:37;33.70;1.20
8422;DHT22;4248;48.196;10.924;2022-08-04T15:14:03;33.80;1.00
8422;DHT22;4248;48.196;10.924;2022-08-04T15:16:30;33.80;1.00
8422;DHT22;4248;48.196;10.924;2022-08-04T15:18:57;33.90;1.00
8422;DHT22;4248;48.196;10.924;2022-08-04T15:21:24;33.90;1.00
8422;DHT22;4248;48.196;10.924;2022-08-04T15:23:52;33.90;1.00
8422;DHT22;4248;48.196;10.924;2022-08-04T15:26:32;33.90;1.00
8422;DHT22;4248;48.196;10.924;2022-08-04T15:29:13;34.00;1.00
8422;DHT22;4248;48.196;10.924;2022-08-04T15:31:40;34.00;1.00
8422;DHT22;4248;48.196;10.924;2022-08-04T15:34:08;34.00;1.00
8422;DHT22;4248;48.196;10.924;2022-08-04T15:39:33;34.00;1.00
8422;DHT22;4248;48.196;10.924;2022-08-04T15:47:10;34.00;1.00
8422;DHT22;4248;48.196;10.924;2022-08-04T15:49:36;33.90;1.00
8422;DHT22;4248;48.196;10.924;2022-08-04T15:52:06;33.90;1.00
8422;DHT22;4248;48.196;10.924;2022-08-04T15:54:32;33.90;1.00
8422;DHT22;4248;48.196;10.924;2022-08-04T15:57:00;33.90;1.00
8422;DHT22;4248;48.196;10.924;2022-08-04T16:02:40;33.70;1.00
8422;DHT22;4248;48.196;10.924;2022-08-04T16:07:59;33.80;1.00
8422;DHT22;4248;48.196;10.924;2022-08-04T16:10:45;33.70;1.00
8422;DHT22;4248;48.196;10.924;2022-08-04T16:13:16;33.60;1.00
8422;DHT22;4248;48.196;10.924;2022-08-04T16:15:54;33.60;1.00
8422;DHT22;4248;48.196;10.924;2022-08-04T16:18:36;33.60;1.00
8422;DHT22;4248;48.196;10.924;2022-08-04T16:21:05;33.60;1.00
8422;DHT22;4248;48.196;10.924;2022-08-04T16:23:53;33.50;1.00
8422;DHT22;4248;48.196;10.924;2022-08-04T16:26:42;33.50;1.30
8422;DHT22;4248;48.196;10.924;2022-08-04T16:37:15;33.20;1.00
8422;DHT22;4248;48.196;10.924;2022-08-04T16:39:42;33.20;1.00
8422;DHT22;4248;48.196;10.924;2022-08-04T16:47:59;32.90;1.00
8422;DHT22;4248;48.196;10.924;2022-08-04T16:50:25;32.80;1.00
8422;DHT22;4248;48.196;10.924;2022-08-04T16:52:53;32.80;1.00
8422;DHT22;4248;48.196;10.924;2022-08-04T16:55:24;32.70;1.00
8422;DHT22;4248;48.196;10.924;2022-08-04T16:57:51;32.60;1.00
8422;DHT22;4248;48.196;10.924;2022-08-04T17:00:33;32.60;1.00
8422;DHT22;4248;48.196;10.924;2022-08-04T17:03:04;32.50;1.00
8422;DHT22;4248;48.196;10.924;2022-08-04T17:05:31;32.50;1.00
8422;DHT22;4248;48.196;10.924;2022-08-04T17:07:59;32.50;1.00
8422;DHT22;4248;48.196;10.924;2022-08-04T17:13:33;32.30;1.00
8422;DHT22;4248;48.196;10.924;2022-08-04T17:16:02;32.30;1.00
8422;DHT22;4248;48.196;10.924;2022-08-04T17:18:40;32.20;1.00
8422;DHT22;4248;48.196;10.924;2022-08-04T17:21:08;32.20;1.00
8422;DHT22;4248;48.196;10.924;2022-08-04T17:23:39;32.00;1.00
8422;DHT22;4248;48.196;10.924;2022-08-04T17:26:12;31.90;1.00
8422;DHT22;4248;48.196;10.924;2022-08-04T17:28:39;31.90;1.00
8422;DHT22;4248;48.196;10.924;2022-08-04T17:31:08;31.80;1.00
8422;DHT22;4248;48.196;10.924;2022-08-04T17:33:36;31.70;1.00
8422;DHT22;4248;48.196;10.924;2022-08-04T17:36:03;31.60;1.00
8422;DHT22;4248;48.196;10.924;2022-08-04T17:38:39;31.60;1.00
8422;DHT22;4248;48.196;10.924;2022-08-04T17:41:07;31.40;1.60
8422;DHT22;4248;48.196;10.924;2022-08-04T17:43:46;32.10;1.00
8422;DHT22;4248;48.196;10.924;2022-08-04T17:46:40;32.20;1.50
8422;DHT22;4248;48.196;10.924;2022-08-04T17:51:50;33.10;1.00
8422;DHT22;4248;48.196;10.924;2022-08-04T17:54:27;33.40;1.00
8422;DHT22;4248;48.196;10.924;2022-08-04T17:56:59;33.50;1.00
8422;DHT22;4248;48.196;10.924;2022-08-04T17:59:42;33.60;1.00
8422;DHT22;4248;48.196;10.924;2022-08-04T18:02:08;33.70;1.00
8422;DHT22;4248;48.196;10.924;2022-08-04T18:04:35;33.80;1.00
8422;DHT22;4248;48.196;10.924;2022-08-04T18:09:38;33.60;1.00
8422;DHT22;4248;48.196;10.924;2022-08-04T18:12:06;33.60;1.00
8422;DHT22;4248;48.196;10.924;2022-08-04T18:14:44;33.20;1.00
8422;DHT22;4248;48.196;10.924;2022-08-04T18:17:11;33.00;1.90
8422;DHT22;4248;48.196;10.924;2022-08-04T18:19:49;32.50;2.50
8422;DHT22;4248;48.196;10.924;2022-08-04T18:22:16;32.00;2.70
8422;DHT22;4248;48.196;10.924;2022-08-04T18:24:42;31.30;2.30
8422;DHT22;4248;48.196;10.924;2022-08-04T18:27:07;31.00;3.50
8422;DHT22;4248;48.196;10.924;2022-08-04T18:29:34;30.60;3.90
8422;DHT22;4248;48.196;10.924;2022-08-04T18:32:00;30.30;4.60
8422;DHT22;4248;48.196;10.924;2022-08-04T18:34:25;29.70;5.00
8422;DHT22;4248;48.196;10.924;2022-08-04T18:36:51;29.50;6.00
8422;DHT22;4248;48.196;10.924;2022-08-04T18:39:17;29.10;5.70
8422;DHT22;4248;48.196;10.924;2022-08-04T18:41:43;28.90;6.30
8422;DHT22;4248;48.196;10.924;2022-08-04T18:44:10;28.40;7.60
8422;DHT22;4248;48.196;10.924;2022-08-04T18:46:35;28.20;8.80
8422;DHT22;4248;48.196;10.924;2022-08-04T18:49:01;27.90;9.90
8422;DHT22;4248;48.196;10.924;2022-08-04T18:51:27;27.70;10.90
8422;DHT22;4248;48.196;10.924;2022-08-04T18:53:53;27.30;11.20
8422;DHT22;4248;48.196;10.924;2022-08-04T18:56:18;27.20;12.20
8422;DHT22;4248;48.196;10.924;2022-08-04T18:58:44;26.90;13.50
8422;DHT22;4248;48.196;10.924;2022-08-04T19:01:10;26.60;14.80
8422;DHT22;4248;48.196;10.924;2022-08-04T19:03:38;26.10;15.50
8422;DHT22;4248;48.196;10.924;2022-08-04T19:06:04;26.10;16.60
8422;DHT22;4248;48.196;10.924;2022-08-04T19:08:30;25.80;17.40
8422;DHT22;4248;48.196;10.924;2022-08-04T19:10:57;25.60;18.30
8422;DHT22;4248;48.196;10.924;2022-08-04T19:13:22;25.20;18.40
8422;DHT22;4248;48.196;10.924;2022-08-04T19:15:48;25.20;19.30
8422;DHT22;4248;48.196;10.924;2022-08-04T19:18:13;25.20;19.50
8422;DHT22;4248;48.196;10.924;2022-08-04T19:20:39;25.20;18.80
8422;DHT22;4248;48.196;10.924;2022-08-04T19:23:05;25.10;17.20
8422;DHT22;4248;48.196;10.924;2022-08-04T19:25:30;25.10;18.10
8422;DHT22;4248;48.196;10.924;2022-08-04T19:27:56;25.00;18.30
8422;DHT22;4248;48.196;10.924;2022-08-04T19:30:21;25.00;18.00
8422;DHT22;4248;48.196;10.924;2022-08-04T19:32:47;25.00;17.80
8422;DHT22;4248;48.196;10.924;2022-08-04T19:35:13;25.00;17.20
8422;DHT22;4248;48.196;10.924;2022-08-04T19:37:38;24.80;18.50
8422;DHT22;4248;48.196;10.924;2022-08-04T19:40:06;24.50;19.60
8422;DHT22;4248;48.196;10.924;2022-08-04T19:42:32;24.30;20.40
8422;DHT22;4248;48.196;10.924;2022-08-04T19:44:59;24.00;21.30
8422;DHT22;4248;48.196;10.924;2022-08-04T19:47:25;23.90;22.10
8422;DHT22;4248;48.196;10.924;2022-08-04T19:49:51;23.70;22.80
8422;DHT22;4248;48.196;10.924;2022-08-04T19:52:17;23.60;23.20
8422;DHT22;4248;48.196;10.924;2022-08-04T19:54:42;23.40;24.00
8422;DHT22;4248;48.196;10.924;2022-08-04T19:57:08;23.40;24.20
8422;DHT22;4248;48.196;10.924;2022-08-04T19:59:34;23.30;24.80
8422;DHT22;4248;48.196;10.924;2022-08-04T20:01:59;23.30;24.80
8422;DHT22;4248;48.196;10.924;2022-08-04T20:04:25;23.20;23.90
8422;DHT22;4248;48.196;10.924;2022-08-04T20:06:50;23.20;24.70
8422;DHT22;4248;48.196;10.924;2022-08-04T20:09:18;23.10;25.10
8422;DHT22;4248;48.196;10.924;2022-08-04T20:11:44;22.90;25.70
8422;DHT22;4248;48.196;10.924;2022-08-04T20:14:11;22.70;26.10
8422;DHT22;4248;48.196;10.924;2022-08-04T20:16:36;22.60;26.80
8422;DHT22;4248;48.196;10.924;2022-08-04T20:19:02;22.40;27.50
8422;DHT22;4248;48.196;10.924;2022-08-04T20:21:28;22.30;27.70
8422;DHT22;4248;48.196;10.924;2022-08-04T20:23:53;22.20;27.40
8422;DHT22;4248;48.196;10.924;2022-08-04T20:26:19;22.20;28.20
8422;DHT22;4248;48.196;10.924;2022-08-04T20:28:45;22.20;28.30
8422;DHT22;4248;48.196;10.924;2022-08-04T20:31:11;22.10;28.50
8422;DHT22;4248;48.196;10.924;2022-08-04T20:33:36;22.00;28.00
8422;DHT22;4248;48.196;10.924;2022-08-04T20:36:02;22.00;28.70